createdAt,value
2023-02-18T00:01:16.034Z,4.63
2023-02-18T00:07:03.050Z,5.28
2023-02-18T00:12:50.046Z,2.97
2023-02-18T00:18:37.518Z,5.47
2023-02-18T00:24:24.397Z,4.50
2023-02-18T00:30:12.097Z,3.92
2023-02-18T00:36:08.047Z,3.80
2023-02-18T00:41:56.084Z,2.45
2023-02-18T00:47:45.152Z,3.85
2023-02-18T00:53:32.689Z,3.83
2023-02-18T00:59:19.818Z,4.43
2023-02-18T01:05:06.770Z,3.08
2023-02-18T01:10:56.135Z,1.70
2023-02-18T01:16:43.074Z,2.30
2023-02-18T01:22:30.499Z,1.00
2023-02-18T01:28:25.242Z,2.22
2023-02-18T01:34:15.565Z,1.40
2023-02-18T01:40:05.348Z,1.30
2023-02-18T01:46:11.464Z,3.03
2023-02-18T01:52:12.909Z,2.72
2023-02-18T01:57:59.924Z,1.15
2023-02-18T02:03:46.973Z,3.90
2023-02-18T02:09:36.148Z,1.73
2023-02-18T02:15:52.663Z,0.43
2023-02-18T02:22:02.952Z,1.42
2023-02-18T02:28:27.063Z,0.40
2023-02-18T02:34:39.757Z,1.00
2023-02-18T02:40:48.284Z,1.15
2023-02-18T02:46:48.760Z,2.45
2023-02-18T02:52:47.819Z,0.75
2023-02-18T02:58:34.754Z,2.28
2023-02-18T03:04:34.653Z,3.95
2023-02-18T03:10:48.588Z,2.53
2023-02-18T03:16:59.771Z,2.95
2023-02-18T03:22:52.405Z,2.90
2023-02-18T03:28:41.774Z,5.40
2023-02-18T03:34:35.789Z,5.57
2023-02-18T03:40:22.825Z,5.47
2023-02-18T03:46:10.227Z,5.32
2023-02-18T03:51:57.473Z,2.25
2023-02-18T03:57:44.258Z,1.65
2023-02-18T04:03:31.510Z,1.83
2023-02-18T04:09:18.281Z,7.35
2023-02-18T04:15:05.348Z,2.28
2023-02-18T04:20:52.396Z,1.48
2023-02-18T04:26:39.384Z,8.80
2023-02-18T04:32:29.624Z,5.68
2023-02-18T04:38:19.146Z,3.70
2023-02-18T04:44:06.530Z,3.13
2023-02-18T04:50:04.555Z,3.33
2023-02-18T04:55:52.730Z,11.52
2023-02-18T05:01:39.601Z,5.18
2023-02-18T05:07:26.524Z,1.77
2023-02-18T05:13:15.796Z,0.60
2023-02-18T05:19:02.560Z,5.75
2023-02-18T05:24:49.357Z,7.25
2023-02-18T05:30:36.324Z,0.80
2023-02-18T05:36:23.221Z,1.00
2023-02-18T05:42:10.515Z,2.92
2023-02-18T05:47:57.356Z,1.15
2023-02-18T05:53:44.178Z,1.52
2023-02-18T05:59:31.826Z,1.45
2023-02-18T06:05:18.741Z,0.50
2023-02-18T06:11:06.714Z,1.38
2023-02-18T06:16:53.739Z,1.77
2023-02-18T06:22:43.551Z,4.50
2023-02-18T06:28:30.798Z,0.57
2023-02-18T06:34:17.644Z,1.52
2023-02-18T06:40:05.787Z,2.22
2023-02-18T06:45:52.711Z,1.38
2023-02-18T06:51:39.493Z,1.90
2023-02-18T06:57:28.634Z,1.52
2023-02-18T07:03:15.697Z,1.98
2023-02-18T07:09:02.653Z,1.48
2023-02-18T07:14:51.933Z,1.67
2023-02-18T07:20:38.860Z,0.70
2023-02-18T07:26:25.751Z,0.32
2023-02-18T07:32:13.846Z,1.05
2023-02-18T07:38:03.044Z,1.05
2023-02-18T07:43:50.030Z,1.52
2023-02-18T07:49:36.816Z,2.95
2023-02-18T07:55:23.650Z,2.80
2023-02-18T08:01:19.729Z,10.77
2023-02-18T08:07:06.870Z,1.50
2023-02-18T08:13:05.311Z,1.00
2023-02-18T08:18:53.620Z,5.47
2023-02-18T08:24:44.432Z,0.63
2023-02-18T08:30:31.487Z,4.20
2023-02-18T08:36:21.700Z,2.22
2023-02-18T08:42:08.564Z,0.17
2023-02-18T08:48:16.646Z,1.85
2023-02-18T08:54:03.562Z,4.32
2023-02-18T08:59:52.955Z,2.03
2023-02-18T09:05:40.857Z,2.72
2023-02-18T09:11:27.769Z,3.67
2023-02-18T09:17:15.174Z,1.23
2023-02-18T09:24:10.970Z,3.85
2023-02-18T09:29:58.111Z,1.15
2023-02-18T09:35:46.534Z,2.30
2023-02-18T09:41:46.723Z,5.47
2023-02-18T09:47:39.552Z,0.93
2023-02-18T09:53:26.894Z,3.03
2023-02-18T09:59:18.102Z,0.85
2023-02-18T10:05:05.193Z,3.72
2023-02-18T10:10:52.100Z,2.75
2023-02-18T10:16:39.233Z,0.25
2023-02-18T10:22:27.616Z,1.88
2023-02-18T10:28:14.569Z,0.88
2023-02-18T10:34:13.327Z,0.65
2023-02-18T10:40:13.217Z,2.53
2023-02-18T10:46:15.742Z,0.98
2023-02-18T10:59:41.919Z,5.00
2023-02-18T11:05:43.832Z,0.47
2023-02-18T11:11:39.538Z,6.43
2023-02-18T11:17:30.590Z,3.88
2023-02-18T11:23:21.934Z,3.50
2023-02-18T11:29:22.029Z,2.72
2023-02-18T11:35:18.853Z,1.08
2023-02-18T11:41:12.093Z,0.50
2023-02-18T11:47:20.220Z,1.92
2023-02-18T11:53:27.980Z,1.75
2023-02-18T11:59:15.151Z,1.98
2023-02-18T12:05:26.794Z,0.30
2023-02-18T12:11:22.922Z,4.47
2023-02-18T12:17:26.898Z,7.88
2023-02-18T12:23:32.223Z,1.65
2023-02-18T12:29:41.924Z,0.40
2023-02-18T12:35:35.815Z,1.85
2023-02-18T12:41:42.671Z,2.70
2023-02-18T12:47:44.822Z,0.95
2023-02-18T13:00:40.810Z,9.15
2023-02-18T13:14:00.447Z,0.47
2023-02-18T13:19:57.662Z,1.60
2023-02-18T13:25:45.222Z,2.53
2023-02-18T13:32:03.335Z,3.50
2023-02-18T13:38:12.317Z,4.28
2023-02-18T13:44:00.099Z,0.90
2023-02-18T13:49:52.688Z,0.63
2023-02-18T13:55:56.101Z,2.00
2023-02-18T14:02:35.406Z,1.17
2023-02-18T14:08:41.000Z,0.55
2023-02-18T14:14:29.979Z,2.55
2023-02-18T14:20:19.721Z,8.07
2023-02-18T14:26:13.056Z,1.38
2023-02-18T14:32:10.199Z,0.57
2023-02-18T14:38:28.853Z,1.17
2023-02-18T14:44:28.034Z,0.40
2023-02-18T14:50:20.236Z,0.28
2023-02-18T14:56:13.301Z,0.52
2023-02-18T15:02:00.401Z,1.42
2023-02-18T15:08:08.988Z,0.52
2023-02-18T15:13:55.880Z,1.65
2023-02-18T15:19:50.333Z,1.90
2023-02-18T15:25:37.400Z,0.30
2023-02-18T15:31:38.760Z,1.27
2023-02-18T15:37:25.900Z,0.40
2023-02-18T15:43:21.377Z,0.80
2023-02-18T15:49:08.723Z,0.45
2023-02-18T15:55:00.625Z,1.17
2023-02-18T16:00:53.807Z,1.53
2023-02-18T16:13:56.601Z,5.75
2023-02-18T16:20:04.319Z,1.30
2023-02-18T16:26:38.314Z,3.30
2023-02-18T16:32:30.470Z,1.23
2023-02-18T16:46:55.528Z,1.23
2023-02-18T16:52:53.460Z,1.88
2023-02-18T16:58:54.054Z,1.10
2023-02-18T17:04:45.188Z,3.10
2023-02-18T17:10:33.466Z,1.27
2023-02-18T17:16:21.041Z,2.60
2023-02-18T17:22:09.975Z,4.10
2023-02-18T17:27:57.811Z,0.75
2023-02-18T17:33:46.614Z,0.50
2023-02-18T17:39:34.411Z,2.45
2023-02-18T17:45:32.311Z,1.90
2023-02-18T17:51:29.304Z,3.17
2023-02-18T17:57:16.266Z,2.20
2023-02-18T18:03:06.473Z,1.95
2023-02-18T18:09:04.015Z,8.13
2023-02-18T18:14:55.291Z,18.52
2023-02-18T18:20:45.470Z,3.58
2023-02-18T18:26:39.836Z,2.50
2023-02-18T18:32:30.239Z,2.63
2023-02-18T18:38:25.727Z,8.38
2023-02-18T18:44:17.526Z,6.78
2023-02-18T18:50:07.716Z,3.65
2023-02-18T18:55:58.725Z,8.00
2023-02-18T19:01:45.882Z,3.97
2023-02-18T19:07:32.920Z,6.03
2023-02-18T19:13:21.368Z,5.72
2023-02-18T19:19:10.887Z,3.53
2023-02-18T19:24:57.677Z,5.15
2023-02-18T19:30:46.506Z,3.45
2023-02-18T19:36:33.605Z,9.50
2023-02-18T19:42:20.856Z,4.68
2023-02-18T19:48:07.741Z,5.47
2023-02-18T19:53:59.165Z,7.10
2023-02-18T19:59:46.911Z,8.63
2023-02-18T20:05:37.460Z,5.10
2023-02-18T20:11:25.783Z,6.50
2023-02-18T20:17:12.748Z,9.23
2023-02-18T20:23:02.669Z,16.30
2023-02-18T20:28:49.504Z,11.15
2023-02-18T20:34:36.530Z,10.15
2023-02-18T20:40:23.418Z,5.55
2023-02-18T20:46:21.887Z,3.83
2023-02-18T20:52:11.133Z,8.32
2023-02-18T20:58:04.171Z,9.20
2023-02-18T21:03:54.278Z,13.73
2023-02-18T21:10:38.590Z,12.57
2023-02-18T21:16:46.588Z,14.35
2023-02-18T21:23:11.031Z,9.23
2023-02-18T21:37:05.359Z,18.15
2023-02-18T21:43:32.771Z,13.30
2023-02-18T22:14:40.341Z,14.88
2023-02-18T22:20:32.942Z,11.60
2023-02-18T22:26:58.355Z,16.52
2023-02-18T22:41:30.321Z,9.15
2023-02-18T22:56:10.945Z,13.15
2023-02-18T23:02:22.408Z,11.98
2023-02-18T23:08:19.236Z,20.17
2023-02-18T23:14:18.595Z,8.48
2023-02-18T23:20:22.691Z,6.80
2023-02-18T23:26:09.930Z,12.07
2023-02-18T23:32:34.824Z,21.73
2023-02-18T23:38:59.997Z,24.15
2023-02-18T23:46:14.317Z,8.35
2023-02-18T23:51:43.194Z,6.75
2023-02-18T23:57:38.318Z,17.70
